Skip Navigation Links Skip Navigation Links

Current Weather

Burlington Muni, Burlington, Wis.

For information only: do not use for flight planning or navigation.
Latest weather
Observation time Tuesday, December 1, 2020 8:15 AM CST
Local time Tuesday, December 1, 2020 8:41 AM CST
Flight conditions Marginal Visual Meteorological Conditions
Winds
Wind direction Northwest (320°)
Wind speed 8 mph
Visibility 10 mi.
Sky condition
Ceiling 2,100 ft. overcast
Cloud layer overcast 2,100 ft.
Temperature 24°F
Dewpoint 18°F
Altimeter 30.05 in.Hg
Derived measurements
Relative humidity 76%
Wind chill 15°F
Density altitude -1723 ft.
Remarks
Fully automated report.
Automated weather observing station with precipitation discriminator.
Present weather sensor not operating.
METAR KBUU 011415Z AUTO 32007KT 10SM OVC021 M04/M08 A3005 RMK AO2 T10451080 PWINO

Settings

Location code

InnerDrive.Weather 4.0.6770.0 Release CLR 4.0.30319.42000
Copyright ©2018 Inner Drive Technology. All rights reserved. Portions Copyright ©1986-2018 David Braverman.

Find weather

Site navigation


Skip Navigation Links

Place info

Page info

PayPal - The safer, easier way to pay online!

Return home.

Copyright ©2020 Inner Drive Technology. Purveyors of fine, hand-crafted computer software. Page printed 2020-12-01T14:41:09 UTC.